createdAt,value
2023-01-19T00:00:02.206Z,1.87
2023-01-19T00:01:05.034Z,1.89
2023-01-19T00:02:07.657Z,1.91
2023-01-19T00:03:10.302Z,1.92
2023-01-19T00:04:12.971Z,1.93
2023-01-19T00:05:15.904Z,1.95
2023-01-19T00:06:18.737Z,1.97
2023-01-19T00:07:21.475Z,1.99
2023-01-19T00:08:24.123Z,2.01
2023-01-19T00:09:26.783Z,2.02
2023-01-19T00:10:30.016Z,2.05
2023-01-19T00:11:32.667Z,2.07
2023-01-19T00:12:35.478Z,2.07
2023-01-19T00:13:38.151Z,2.08
2023-01-19T00:14:40.781Z,2.07
2023-01-19T00:15:43.585Z,2.1
2023-01-19T00:16:46.257Z,2.12
2023-01-19T00:17:48.939Z,2.14
2023-01-19T00:18:51.629Z,2.17
2023-01-19T00:19:54.274Z,2.17
2023-01-19T00:20:56.895Z,2.16
2023-01-19T00:21:59.674Z,2.17
2023-01-19T00:23:03.459Z,2.18
2023-01-19T00:24:06.005Z,2.18
2023-01-19T00:25:08.674Z,2.17
2023-01-19T00:26:11.367Z,2.16
2023-01-19T00:27:13.996Z,2.14
2023-01-19T00:28:16.679Z,2.15
2023-01-19T00:29:19.385Z,2.15
2023-01-19T00:30:22.037Z,2.13
2023-01-19T00:31:24.835Z,2.11
2023-01-19T00:32:27.478Z,2.12
2023-01-19T00:33:30.141Z,2.12
2023-01-19T00:34:32.814Z,2.13
2023-01-19T00:35:35.515Z,2.15
2023-01-19T00:36:38.233Z,2.14
2023-01-19T00:37:40.981Z,2.14
2023-01-19T00:38:43.737Z,2.15
2023-01-19T00:39:46.382Z,2.15
2023-01-19T00:40:48.977Z,2.18
2023-01-19T00:41:52.264Z,2.19
2023-01-19T00:42:55.042Z,2.2
2023-01-19T00:43:57.708Z,2.2
2023-01-19T00:45:00.434Z,2.21
2023-01-19T00:46:03.287Z,2.24
2023-01-19T00:47:05.973Z,2.26
2023-01-19T00:48:08.626Z,2.28
2023-01-19T00:49:11.299Z,2.28
2023-01-19T00:50:13.922Z,2.28
2023-01-19T00:51:16.620Z,2.29
2023-01-19T00:52:19.272Z,2.27
2023-01-19T00:53:22.034Z,2.28
2023-01-19T00:54:27.805Z,2.27
2023-01-19T00:55:30.242Z,2.28
2023-01-19T00:56:32.943Z,2.27
2023-01-19T00:57:35.797Z,2.26
2023-01-19T00:58:38.512Z,2.27
2023-01-19T00:59:41.160Z,2.27
2023-01-19T01:00:44.081Z,2.28
2023-01-19T01:01:47.138Z,2.28
2023-01-19T01:02:50.187Z,2.27
2023-01-19T01:03:53.169Z,2.28
2023-01-19T01:04:56.469Z,2.27
2023-01-19T01:05:59.104Z,2.29
2023-01-19T01:07:01.787Z,2.3
2023-01-19T01:08:04.473Z,2.3
2023-01-19T01:09:07.222Z,2.27
2023-01-19T01:10:09.869Z,2.27
2023-01-19T01:11:12.576Z,2.27
2023-01-19T01:12:15.330Z,2.27
2023-01-19T01:13:27.787Z,2.28
2023-01-19T01:14:31.142Z,2.27
2023-01-19T01:15:34.795Z,2.27
2023-01-19T01:16:37.538Z,2.26
2023-01-19T01:17:40.256Z,2.28
2023-01-19T01:18:42.889Z,2.28
2023-01-19T01:19:45.544Z,2.3
2023-01-19T01:20:48.232Z,2.29
2023-01-19T01:21:50.862Z,2.28
2023-01-19T01:22:53.515Z,2.3
2023-01-19T01:23:56.249Z,2.31
2023-01-19T01:24:59.141Z,2.31
2023-01-19T01:26:02.027Z,2.3
2023-01-19T01:27:04.674Z,2.32
2023-01-19T01:28:07.326Z,2.32
2023-01-19T01:29:10.052Z,2.3
2023-01-19T01:30:12.982Z,2.3
2023-01-19T01:31:15.922Z,2.31
2023-01-19T01:32:18.711Z,2.32
2023-01-19T01:33:40.216Z,2.33
2023-01-19T01:34:43.188Z,2.35
2023-01-19T01:35:45.774Z,2.36
2023-01-19T01:36:48.408Z,2.38
2023-01-19T01:37:51.093Z,2.36
2023-01-19T01:38:53.747Z,2.34
2023-01-19T01:39:56.993Z,2.35
2023-01-19T01:40:59.687Z,2.36
2023-01-19T01:42:02.323Z,2.37
2023-01-19T01:43:05.198Z,2.37
2023-01-19T01:44:07.910Z,2.38
2023-01-19T01:45:10.698Z,2.4
2023-01-19T01:46:13.452Z,2.4
2023-01-19T01:47:16.179Z,2.39
2023-01-19T01:48:18.882Z,2.38
2023-01-19T01:49:21.558Z,2.37
2023-01-19T01:50:24.181Z,2.38
2023-01-19T01:51:27.009Z,2.37
2023-01-19T01:52:29.661Z,2.37
2023-01-19T01:53:32.342Z,2.38
2023-01-19T01:54:35.613Z,2.37
2023-01-19T01:55:38.240Z,2.36
2023-01-19T01:56:40.974Z,2.37
2023-01-19T01:57:43.664Z,2.39
2023-01-19T01:58:46.351Z,2.38
2023-01-19T01:59:49.042Z,2.39
2023-01-19T02:00:52.012Z,2.39
2023-01-19T02:01:56.769Z,2.38
2023-01-19T02:03:01.308Z,2.39
2023-01-19T02:04:04.713Z,2.39
2023-01-19T02:05:07.343Z,2.39
2023-01-19T02:06:09.997Z,2.42
2023-01-19T02:07:12.628Z,2.43
2023-01-19T02:08:15.232Z,2.43
2023-01-19T02:09:17.989Z,2.44
2023-01-19T02:10:31.226Z,2.45
2023-01-19T02:11:33.478Z,2.44
2023-01-19T02:12:36.166Z,2.45
2023-01-19T02:13:38.827Z,2.43
2023-01-19T02:14:41.473Z,2.42
2023-01-19T02:15:45.071Z,2.44
2023-01-19T02:16:47.958Z,2.42
2023-01-19T02:17:50.738Z,2.44
2023-01-19T02:18:53.404Z,2.44
2023-01-19T02:19:56.032Z,2.44
2023-01-19T02:20:58.724Z,2.43
2023-01-19T02:22:01.363Z,2.41
2023-01-19T02:23:04.049Z,2.42
2023-01-19T02:24:06.923Z,2.42
2023-01-19T02:25:09.585Z,2.43
2023-01-19T02:26:12.265Z,2.44
2023-01-19T02:27:14.906Z,2.46
2023-01-19T02:28:17.596Z,2.48
2023-01-19T02:29:20.293Z,2.49
2023-01-19T02:30:23.197Z,2.49
2023-01-19T02:31:26.028Z,2.49
2023-01-19T02:32:28.683Z,2.48
2023-01-19T02:33:31.366Z,2.47
2023-01-19T02:34:34.172Z,2.45
2023-01-19T02:35:36.851Z,2.45
2023-01-19T02:36:39.697Z,2.44
2023-01-19T02:37:42.350Z,2.46
2023-01-19T02:38:45.032Z,2.47
2023-01-19T02:39:47.936Z,2.49
2023-01-19T02:40:50.567Z,2.5
2023-01-19T02:41:53.295Z,2.54
2023-01-19T02:42:55.965Z,2.54
2023-01-19T02:43:58.689Z,2.55
2023-01-19T02:45:01.565Z,2.55
2023-01-19T02:46:04.411Z,2.57
2023-01-19T02:47:07.074Z,2.58
2023-01-19T02:48:10.293Z,2.59
2023-01-19T02:49:12.914Z,2.6
2023-01-19T02:50:15.788Z,2.63
2023-01-19T02:51:18.457Z,2.63
2023-01-19T02:52:21.134Z,2.64
2023-01-19T02:53:23.812Z,2.64
2023-01-19T02:54:26.451Z,2.65
2023-01-19T02:55:29.108Z,2.65
2023-01-19T02:56:31.761Z,2.63
2023-01-19T02:57:34.463Z,2.63
2023-01-19T02:58:37.201Z,2.63
2023-01-19T02:59:40.041Z,2.63
2023-01-19T03:00:42.673Z,2.64
2023-01-19T03:01:45.785Z,2.63
2023-01-19T03:02:48.852Z,2.64
2023-01-19T03:03:51.611Z,2.65
2023-01-19T03:04:54.281Z,2.65
2023-01-19T03:05:56.939Z,2.66
2023-01-19T03:06:59.544Z,2.65
2023-01-19T03:08:02.213Z,2.64
2023-01-19T03:09:04.890Z,2.63
2023-01-19T03:10:07.792Z,2.62
2023-01-19T03:11:10.601Z,2.6
2023-01-19T03:12:13.232Z,2.59
2023-01-19T03:13:15.953Z,2.59
2023-01-19T03:14:18.673Z,2.6
2023-01-19T03:15:21.438Z,2.59
2023-01-19T03:16:24.327Z,2.58
2023-01-19T03:17:26.988Z,2.6
2023-01-19T03:18:29.629Z,2.6
2023-01-19T03:19:32.307Z,2.61
2023-01-19T03:20:34.970Z,2.61
2023-01-19T03:21:37.600Z,2.6
2023-01-19T03:22:40.257Z,2.61
2023-01-19T03:23:42.967Z,2.58
2023-01-19T03:24:45.642Z,2.55
2023-01-19T03:25:48.262Z,2.54
2023-01-19T03:26:50.902Z,2.52
2023-01-19T03:27:53.541Z,2.53
2023-01-19T03:28:56.808Z,2.52
2023-01-19T03:29:59.454Z,2.53
2023-01-19T03:31:02.443Z,2.52
2023-01-19T03:32:05.151Z,2.52
2023-01-19T03:33:07.815Z,2.51
2023-01-19T03:34:10.483Z,2.52
2023-01-19T03:35:13.112Z,2.51
2023-01-19T03:36:15.766Z,2.51
2023-01-19T03:37:18.392Z,2.51
2023-01-19T03:38:21.068Z,2.51
2023-01-19T03:39:23.770Z,2.49
2023-01-19T03:40:26.385Z,2.48
2023-01-19T03:41:29.059Z,2.49
2023-01-19T03:42:31.743Z,2.49
2023-01-19T03:43:34.369Z,2.46
2023-01-19T03:44:37.048Z,2.45
2023-01-19T03:45:39.733Z,2.43
2023-01-19T03:46:42.552Z,2.43
2023-01-19T03:47:45.304Z,2.43
2023-01-19T03:48:48.533Z,2.41
2023-01-19T03:49:51.173Z,2.41
2023-01-19T03:50:53.838Z,2.4
2023-01-19T03:51:56.493Z,2.38
2023-01-19T03:53:00.249Z,2.4
2023-01-19T03:54:03.315Z,2.41
2023-01-19T03:55:05.943Z,2.42
2023-01-19T03:56:08.599Z,2.41
2023-01-19T03:57:11.233Z,2.42
2023-01-19T03:58:13.883Z,2.42
2023-01-19T03:59:16.738Z,2.44
2023-01-19T04:00:19.464Z,2.44
2023-01-19T04:01:22.429Z,2.41
2023-01-19T04:02:25.798Z,2.39
2023-01-19T04:03:28.530Z,2.39
2023-01-19T04:04:31.210Z,2.36
2023-01-19T04:05:33.913Z,2.35
2023-01-19T04:06:36.551Z,2.33
2023-01-19T04:07:39.177Z,2.32
2023-01-19T04:08:41.841Z,2.3
2023-01-19T04:09:44.470Z,2.3
2023-01-19T04:10:47.111Z,2.28
2023-01-19T04:11:49.752Z,2.26
2023-01-19T04:12:52.393Z,2.25
2023-01-19T04:13:55.027Z,2.24
2023-01-19T04:14:57.753Z,2.24
2023-01-19T04:16:00.725Z,2.24
2023-01-19T04:17:03.438Z,2.23
2023-01-19T04:18:06.131Z,2.21
2023-01-19T04:19:08.881Z,2.24
2023-01-19T04:20:11.571Z,2.23
2023-01-19T04:21:14.216Z,2.23
2023-01-19T04:22:16.815Z,2.23
2023-01-19T04:23:19.449Z,2.23
2023-01-19T04:24:22.167Z,2.23
2023-01-19T04:25:24.891Z,2.23
2023-01-19T04:26:27.554Z,2.24
2023-01-19T04:27:30.342Z,2.24
2023-01-19T04:28:32.914Z,2.24
2023-01-19T04:29:35.561Z,2.24
2023-01-19T04:30:38.210Z,2.23
2023-01-19T04:31:40.884Z,2.21
2023-01-19T04:32:43.551Z,2.19
2023-01-19T04:33:46.286Z,2.16
2023-01-19T04:34:48.930Z,2.16
2023-01-19T04:35:54.771Z,2.14
2023-01-19T04:36:57.166Z,2.13
2023-01-19T04:37:59.793Z,2.13
2023-01-19T04:39:02.475Z,2.13
2023-01-19T04:40:05.076Z,2.12
2023-01-19T04:41:08.282Z,2.1
2023-01-19T04:42:10.954Z,2.1
2023-01-19T04:43:13.626Z,2.1
2023-01-19T04:44:16.283Z,2.09
2023-01-19T04:45:18.921Z,2.07
2023-01-19T04:46:21.756Z,2.05
2023-01-19T04:47:24.439Z,2.06
2023-01-19T04:48:27.100Z,2.06
2023-01-19T04:49:30.055Z,2.05
2023-01-19T04:50:32.931Z,2.04
2023-01-19T04:51:35.612Z,2.04
2023-01-19T04:52:38.280Z,2.04
2023-01-19T04:53:40.960Z,2.04
2023-01-19T04:54:43.632Z,2.03
2023-01-19T04:55:46.265Z,2.04
2023-01-19T04:56:48.876Z,2.06
2023-01-19T04:57:51.550Z,2.04
2023-01-19T04:58:54.213Z,2.04
2023-01-19T04:59:56.980Z,2.05
2023-01-19T05:00:59.800Z,2.03
2023-01-19T05:02:02.782Z,2.03
2023-01-19T05:03:06.600Z,1.99
2023-01-19T05:04:09.328Z,2
2023-01-19T05:05:12.020Z,1.99
2023-01-19T05:06:14.716Z,1.98
2023-01-19T05:07:17.634Z,1.98
2023-01-19T05:08:20.246Z,1.98
2023-01-19T05:09:22.858Z,2.01
2023-01-19T05:10:25.672Z,2
2023-01-19T05:11:28.335Z,1.99
2023-01-19T05:12:31.217Z,2.01
2023-01-19T05:13:33.933Z,2.01
2023-01-19T05:14:36.591Z,2
2023-01-19T05:15:39.243Z,2.02
2023-01-19T05:16:41.894Z,2.02
2023-01-19T05:17:44.519Z,2.03
2023-01-19T05:18:47.180Z,2.04
2023-01-19T05:19:49.876Z,2.05
2023-01-19T05:20:52.619Z,2.05
2023-01-19T05:21:55.310Z,2.04
2023-01-19T05:22:59.614Z,2.03
2023-01-19T05:24:02.898Z,2.03
2023-01-19T05:25:05.631Z,2.04
2023-01-19T05:26:10.589Z,2.04
2023-01-19T05:27:13.049Z,2.03
2023-01-19T05:28:15.703Z,2.02
2023-01-19T05:29:18.398Z,2.03
2023-01-19T05:30:21.012Z,2.03
2023-01-19T05:31:24.402Z,2.04
2023-01-19T05:32:27.156Z,2.04
2023-01-19T05:33:29.800Z,2.03
2023-01-19T05:34:32.457Z,2.01
2023-01-19T05:35:36.808Z,1.98
2023-01-19T05:36:39.399Z,1.97
2023-01-19T05:37:42.090Z,1.97
2023-01-19T05:38:44.753Z,1.96
2023-01-19T05:39:47.350Z,1.95
2023-01-19T05:40:50.042Z,1.94
2023-01-19T05:41:52.701Z,1.95
2023-01-19T05:42:55.346Z,1.93
2023-01-19T05:43:58.043Z,1.94
2023-01-19T05:45:10.694Z,1.94
2023-01-19T05:46:12.919Z,1.94
2023-01-19T05:47:15.539Z,1.94
2023-01-19T05:48:18.233Z,1.93
2023-01-19T05:49:20.830Z,1.93
2023-01-19T05:50:23.601Z,1.92
2023-01-19T05:51:26.239Z,1.92
2023-01-19T05:52:29.618Z,1.91
2023-01-19T05:53:32.414Z,1.92
2023-01-19T05:54:35.046Z,1.9
2023-01-19T05:55:37.680Z,1.9
2023-01-19T05:56:40.329Z,1.89
2023-01-19T05:57:42.993Z,1.86
2023-01-19T05:58:45.672Z,1.84
2023-01-19T05:59:48.391Z,1.83
2023-01-19T06:00:51.164Z,1.83
2023-01-19T06:01:54.085Z,1.81
2023-01-19T06:02:56.943Z,1.82
2023-01-19T06:03:59.638Z,1.81
2023-01-19T06:05:02.292Z,1.83
2023-01-19T06:06:04.932Z,1.84
2023-01-19T06:07:07.642Z,1.85
2023-01-19T06:08:10.415Z,1.84
2023-01-19T06:09:13.111Z,1.83
2023-01-19T06:10:15.743Z,1.84
2023-01-19T06:11:18.440Z,1.88
2023-01-19T06:12:21.131Z,1.89
2023-01-19T06:13:23.752Z,1.9
2023-01-19T06:14:26.388Z,1.92
2023-01-19T06:15:29.048Z,1.92
2023-01-19T06:16:31.966Z,1.95
2023-01-19T06:17:34.706Z,1.98
2023-01-19T06:18:37.709Z,1.98
2023-01-19T06:19:40.335Z,1.99
2023-01-19T06:20:43.002Z,2
2023-01-19T06:21:45.632Z,2.01
2023-01-19T06:22:48.302Z,2.02
2023-01-19T06:23:50.982Z,2.02
2023-01-19T06:24:53.663Z,2.03
2023-01-19T06:25:56.293Z,2.04
2023-01-19T06:26:58.986Z,2.06
2023-01-19T06:28:01.660Z,2.05
2023-01-19T06:29:04.340Z,2.06
2023-01-19T06:30:07.024Z,2.09
2023-01-19T06:31:09.949Z,2.12
2023-01-19T06:32:12.767Z,2.14
2023-01-19T06:33:15.454Z,2.16
2023-01-19T06:34:18.087Z,2.17
2023-01-19T06:35:20.713Z,2.17
2023-01-19T06:36:23.346Z,2.19
2023-01-19T06:37:25.983Z,2.22
2023-01-19T06:38:28.694Z,2.21
2023-01-19T06:39:31.497Z,2.22
2023-01-19T06:40:34.173Z,2.22
2023-01-19T06:41:36.834Z,2.22
2023-01-19T06:42:49.547Z,2.25
2023-01-19T06:43:51.804Z,2.27
2023-01-19T06:44:54.498Z,2.24
2023-01-19T06:45:57.936Z,2.25
2023-01-19T06:47:14.699Z,2.25
2023-01-19T06:48:18.455Z,2.24
2023-01-19T06:49:21.039Z,2.24
2023-01-19T06:50:23.673Z,2.23
2023-01-19T06:51:26.302Z,2.25
2023-01-19T06:52:29.006Z,2.27
2023-01-19T06:53:31.649Z,2.27
2023-01-19T06:54:34.435Z,2.28
2023-01-19T06:55:37.196Z,2.27
2023-01-19T06:56:40.526Z,2.28
2023-01-19T06:57:43.230Z,2.3
2023-01-19T06:58:45.855Z,2.29
2023-01-19T06:59:48.577Z,2.3
2023-01-19T07:00:51.643Z,2.3
2023-01-19T07:01:55.078Z,2.31
2023-01-19T07:02:58.841Z,2.34
2023-01-19T07:04:02.109Z,2.35
2023-01-19T07:05:04.778Z,2.38
2023-01-19T07:06:07.522Z,2.4
2023-01-19T07:07:10.178Z,2.41
2023-01-19T07:08:12.893Z,2.42
2023-01-19T07:09:17.197Z,2.42
2023-01-19T07:10:19.713Z,2.42
2023-01-19T07:11:33.004Z,2.44
2023-01-19T07:12:35.680Z,2.43
2023-01-19T07:13:38.969Z,2.45
2023-01-19T07:14:41.749Z,2.45
2023-01-19T07:15:44.394Z,2.44
2023-01-19T07:16:47.092Z,2.42
2023-01-19T07:17:49.759Z,2.44
2023-01-19T07:18:52.479Z,2.44
2023-01-19T07:19:55.105Z,2.46
2023-01-19T07:20:57.797Z,2.45
2023-01-19T07:22:00.450Z,2.44
2023-01-19T07:23:03.797Z,2.43
2023-01-19T07:24:06.372Z,2.44
2023-01-19T07:25:08.998Z,2.44
2023-01-19T07:26:11.737Z,2.44
2023-01-19T07:27:14.463Z,2.46
2023-01-19T07:28:17.101Z,2.47
2023-01-19T07:29:19.719Z,2.5
2023-01-19T07:30:22.621Z,2.52
2023-01-19T07:31:25.753Z,2.54
2023-01-19T07:32:28.555Z,2.56
2023-01-19T07:33:31.205Z,2.56
2023-01-19T07:34:33.840Z,2.57
2023-01-19T07:35:36.483Z,2.58
2023-01-19T07:36:39.162Z,2.59
2023-01-19T07:37:41.845Z,2.61
2023-01-19T07:38:44.475Z,2.64
2023-01-19T07:39:47.152Z,2.65
2023-01-19T07:40:49.789Z,2.65
2023-01-19T07:41:52.604Z,2.66
2023-01-19T07:42:55.461Z,2.65
2023-01-19T07:43:58.084Z,2.66
2023-01-19T07:45:00.722Z,2.65
2023-01-19T07:46:03.472Z,2.65
2023-01-19T07:47:06.204Z,2.66
2023-01-19T07:48:08.891Z,2.68
2023-01-19T07:49:11.586Z,2.69
2023-01-19T07:50:14.306Z,2.69
2023-01-19T07:51:16.959Z,2.67
2023-01-19T07:52:19.626Z,2.68
2023-01-19T07:53:22.277Z,2.69
2023-01-19T07:54:24.959Z,2.7
2023-01-19T07:55:28.235Z,2.72
2023-01-19T07:56:34.111Z,2.72
2023-01-19T07:57:36.820Z,2.75
2023-01-19T07:58:39.549Z,2.75
2023-01-19T07:59:42.166Z,2.75
2023-01-19T08:00:44.769Z,2.77
2023-01-19T08:01:47.822Z,2.79
2023-01-19T08:02:50.583Z,2.79
2023-01-19T08:03:53.245Z,2.79
2023-01-19T08:04:55.969Z,2.79
2023-01-19T08:05:58.762Z,2.77
2023-01-19T08:07:01.401Z,2.8
2023-01-19T08:08:04.086Z,2.82
2023-01-19T08:09:06.789Z,2.82
2023-01-19T08:10:09.411Z,2.81
2023-01-19T08:11:12.056Z,2.81
2023-01-19T08:12:14.728Z,2.82
2023-01-19T08:13:18.013Z,2.81
2023-01-19T08:14:20.772Z,2.79
2023-01-19T08:15:23.542Z,2.79
2023-01-19T08:16:26.474Z,2.79
2023-01-19T08:17:29.085Z,2.81
2023-01-19T08:18:31.737Z,2.82
2023-01-19T08:19:34.430Z,2.83
2023-01-19T08:20:37.116Z,2.85
2023-01-19T08:21:39.812Z,2.86
2023-01-19T08:22:43.237Z,2.88
2023-01-19T08:23:46.078Z,2.86
2023-01-19T08:24:50.668Z,2.84
2023-01-19T08:25:53.138Z,2.82
2023-01-19T08:26:55.758Z,2.83
2023-01-19T08:27:58.426Z,2.84
2023-01-19T08:29:01.097Z,2.84
2023-01-19T08:30:04.343Z,2.86
2023-01-19T08:31:20.967Z,2.86
2023-01-19T08:32:27.012Z,2.86
2023-01-19T08:33:29.688Z,2.85
2023-01-19T08:34:32.469Z,2.86
2023-01-19T08:35:35.225Z,2.88
2023-01-19T08:36:37.873Z,2.9
2023-01-19T08:37:40.543Z,2.93
2023-01-19T08:38:43.415Z,2.95
2023-01-19T08:39:46.183Z,2.99
2023-01-19T08:40:48.930Z,3
2023-01-19T08:41:51.587Z,3.04
2023-01-19T08:42:54.233Z,3.06
2023-01-19T08:43:56.877Z,3.06
2023-01-19T08:44:59.559Z,3.05
2023-01-19T08:46:02.411Z,3.06
2023-01-19T08:47:05.187Z,3.06
2023-01-19T08:48:07.988Z,3.06
2023-01-19T08:49:10.697Z,3.07
2023-01-19T08:50:13.469Z,3.1
2023-01-19T08:51:16.173Z,3.12
2023-01-19T08:52:18.851Z,3.14
2023-01-19T08:53:21.504Z,3.18
2023-01-19T08:54:24.179Z,3.17
2023-01-19T08:55:26.822Z,3.18
2023-01-19T08:56:29.487Z,3.18
2023-01-19T08:57:32.131Z,3.19
2023-01-19T08:58:34.791Z,3.22
2023-01-19T08:59:37.441Z,3.21
2023-01-19T09:00:40.157Z,3.19
2023-01-19T09:01:43.577Z,3.2
2023-01-19T09:02:46.715Z,3.2
2023-01-19T09:03:49.419Z,3.22
2023-01-19T09:04:52.065Z,3.24
2023-01-19T09:05:54.661Z,3.24
2023-01-19T09:06:57.394Z,3.25
2023-01-19T09:08:01.487Z,3.27
2023-01-19T09:09:04.610Z,3.3
2023-01-19T09:10:07.264Z,3.33
2023-01-19T09:11:09.981Z,3.35
2023-01-19T09:12:12.677Z,3.34
2023-01-19T09:13:15.433Z,3.33
2023-01-19T09:14:18.200Z,3.33
2023-01-19T09:15:20.980Z,3.34
2023-01-19T09:16:23.856Z,3.36
2023-01-19T09:17:26.647Z,3.35
2023-01-19T09:18:29.312Z,3.37
2023-01-19T09:19:35.248Z,3.37
2023-01-19T09:20:37.615Z,3.37
2023-01-19T09:21:40.311Z,3.36
2023-01-19T09:22:43.009Z,3.37
2023-01-19T09:23:45.634Z,3.39
2023-01-19T09:24:48.362Z,3.38
2023-01-19T09:25:51.028Z,3.41
2023-01-19T09:26:53.727Z,3.42
2023-01-19T09:27:56.649Z,3.45
2023-01-19T09:28:59.319Z,3.45
2023-01-19T09:30:01.943Z,3.47
2023-01-19T09:31:05.002Z,3.49
2023-01-19T09:32:07.832Z,3.48
2023-01-19T09:33:10.658Z,3.49
2023-01-19T09:34:13.327Z,3.5
2023-01-19T09:35:15.970Z,3.5
2023-01-19T09:36:18.649Z,3.52
2023-01-19T09:37:21.318Z,3.54
2023-01-19T09:38:23.971Z,3.54
2023-01-19T09:39:26.811Z,3.54
2023-01-19T09:40:29.476Z,3.53
2023-01-19T09:41:32.156Z,3.53
2023-01-19T09:42:34.792Z,3.53
2023-01-19T09:43:37.473Z,3.54
2023-01-19T09:44:40.113Z,3.56
2023-01-19T09:45:42.771Z,3.59
2023-01-19T09:46:45.636Z,3.65
2023-01-19T09:47:48.722Z,3.68
2023-01-19T09:48:51.469Z,3.7
2023-01-19T09:49:54.116Z,3.72
2023-01-19T09:50:56.841Z,3.73
2023-01-19T09:51:59.496Z,3.76
2023-01-19T09:53:03.325Z,3.81
2023-01-19T09:54:06.150Z,3.87
2023-01-19T09:55:08.921Z,3.92
2023-01-19T09:56:11.628Z,3.97
2023-01-19T09:57:14.283Z,4.02
2023-01-19T09:58:16.920Z,4.07
2023-01-19T09:59:19.626Z,4.11
2023-01-19T10:00:22.269Z,4.13
2023-01-19T10:01:25.406Z,4.14
2023-01-19T10:02:28.224Z,4.15
2023-01-19T10:03:30.910Z,4.22
2023-01-19T10:04:33.780Z,4.26
2023-01-19T10:05:37.101Z,4.3
2023-01-19T10:06:39.735Z,4.35
2023-01-19T10:07:42.397Z,4.37
2023-01-19T10:08:45.025Z,4.41
2023-01-19T10:09:47.688Z,4.46
2023-01-19T10:10:50.323Z,4.51
2023-01-19T10:11:53.908Z,4.57
2023-01-19T10:12:56.497Z,4.6
2023-01-19T10:13:59.143Z,4.65
2023-01-19T10:15:01.815Z,4.72
2023-01-19T10:16:04.579Z,4.73
2023-01-19T10:17:07.333Z,4.79
2023-01-19T10:18:09.989Z,4.87
2023-01-19T10:19:12.649Z,4.91
2023-01-19T10:20:15.446Z,4.93
2023-01-19T10:21:18.550Z,4.97
2023-01-19T10:22:21.761Z,5
2023-01-19T10:23:24.431Z,5.04
2023-01-19T10:24:27.116Z,5.06
2023-01-19T10:25:29.981Z,5.08
2023-01-19T10:26:32.933Z,5.12
2023-01-19T10:27:35.671Z,5.16
2023-01-19T10:28:38.343Z,5.19
2023-01-19T10:29:41.069Z,5.22
2023-01-19T10:30:43.942Z,5.25
2023-01-19T10:31:46.853Z,5.24
2023-01-19T10:32:49.731Z,5.18
2023-01-19T10:33:53.030Z,5.09
2023-01-19T10:34:55.768Z,5.05
2023-01-19T10:35:58.550Z,5.05
2023-01-19T10:37:02.068Z,5.08
2023-01-19T10:38:04.793Z,5.15
2023-01-19T10:39:07.609Z,5.15
2023-01-19T10:40:10.352Z,5.19
2023-01-19T10:41:13.066Z,5.32
2023-01-19T10:42:15.912Z,5.43
2023-01-19T10:43:19.256Z,5.51
2023-01-19T10:44:22.028Z,5.58
2023-01-19T10:45:25.108Z,5.67
2023-01-19T10:46:28.215Z,5.94
2023-01-19T10:47:31.023Z,6.23
2023-01-19T10:48:33.855Z,6.34
2023-01-19T10:49:36.543Z,6.36
2023-01-19T10:50:39.335Z,6.32
2023-01-19T10:51:42.798Z,6.28
2023-01-19T10:52:45.600Z,6.25
2023-01-19T10:53:48.409Z,6.26
2023-01-19T10:54:51.248Z,6.4
2023-01-19T10:55:54.286Z,6.79
2023-01-19T10:56:57.102Z,6.95
2023-01-19T10:57:59.908Z,6.97
2023-01-19T10:59:02.803Z,6.95
2023-01-19T11:00:05.519Z,7.05
2023-01-19T11:01:08.514Z,7.35
2023-01-19T11:02:12.007Z,7.66
2023-01-19T11:03:15.158Z,7.8
2023-01-19T11:04:17.997Z,7.79
2023-01-19T11:05:20.681Z,7.75
2023-01-19T11:06:23.409Z,7.63
2023-01-19T11:07:26.262Z,7.48
2023-01-19T11:08:28.954Z,7.32
2023-01-19T11:09:31.613Z,7.12
2023-01-19T11:10:36.855Z,6.91
2023-01-19T11:11:39.347Z,6.72
2023-01-19T11:12:41.958Z,6.64
2023-01-19T11:13:44.625Z,6.55
2023-01-19T11:14:47.252Z,6.45
2023-01-19T11:15:49.911Z,6.4
2023-01-19T11:16:52.612Z,6.35
2023-01-19T11:17:55.323Z,6.31
2023-01-19T11:18:57.961Z,6.25
2023-01-19T11:20:00.753Z,6.21
2023-01-19T11:21:03.439Z,6.15
2023-01-19T11:22:06.727Z,6.15
2023-01-19T11:23:09.439Z,6.16
2023-01-19T11:24:12.083Z,6.18
2023-01-19T11:25:14.969Z,6.23
2023-01-19T11:26:17.607Z,6.18
2023-01-19T11:27:20.295Z,6.15
2023-01-19T11:28:22.959Z,6.21
2023-01-19T11:29:25.645Z,6.23
2023-01-19T11:30:28.359Z,6.28
2023-01-19T11:31:31.287Z,6.33
2023-01-19T11:32:34.047Z,6.37
2023-01-19T11:33:36.713Z,6.42
2023-01-19T11:34:39.391Z,6.44
2023-01-19T11:35:42.044Z,6.45
2023-01-19T11:36:44.705Z,6.48
2023-01-19T11:37:47.392Z,6.51
2023-01-19T11:38:51.147Z,6.53
2023-01-19T11:39:53.749Z,6.54
2023-01-19T11:40:56.440Z,6.54
2023-01-19T11:41:59.169Z,6.52
2023-01-19T11:43:03.271Z,6.47
2023-01-19T11:44:06.384Z,6.42
2023-01-19T11:45:09.030Z,6.41
2023-01-19T11:46:11.743Z,6.38
2023-01-19T11:47:14.434Z,6.31
2023-01-19T11:48:17.081Z,6.25
2023-01-19T11:49:19.761Z,6.21
2023-01-19T11:50:22.457Z,6.14
2023-01-19T11:51:25.364Z,6.12
2023-01-19T11:52:28.029Z,6.11
2023-01-19T11:53:30.763Z,6.09
2023-01-19T11:54:33.531Z,6.04
2023-01-19T11:55:36.203Z,5.99
2023-01-19T11:56:38.907Z,5.95
2023-01-19T11:57:41.537Z,5.94
2023-01-19T11:58:44.192Z,5.94
2023-01-19T11:59:46.857Z,5.93
2023-01-19T12:00:49.640Z,5.93
2023-01-19T12:01:52.668Z,5.93
2023-01-19T12:02:55.371Z,5.93
2023-01-19T12:03:58.470Z,5.91
2023-01-19T12:05:01.324Z,5.88
2023-01-19T12:06:03.967Z,5.84
2023-01-19T12:07:06.631Z,5.8
2023-01-19T12:08:09.431Z,5.79
2023-01-19T12:09:12.078Z,5.78
2023-01-19T12:10:14.846Z,5.75
2023-01-19T12:11:17.535Z,5.72
2023-01-19T12:12:20.991Z,5.71
2023-01-19T12:13:23.626Z,5.72
2023-01-19T12:14:27.795Z,5.69
2023-01-19T12:15:30.290Z,5.66
2023-01-19T12:16:33.173Z,5.64
2023-01-19T12:17:35.875Z,5.63
2023-01-19T12:18:38.555Z,5.63
2023-01-19T12:19:41.213Z,5.63
2023-01-19T12:20:43.848Z,5.64
2023-01-19T12:21:46.489Z,5.65
2023-01-19T12:22:49.279Z,5.64
2023-01-19T12:23:51.938Z,5.65
2023-01-19T12:24:54.571Z,5.66
2023-01-19T12:25:58.277Z,5.66
2023-01-19T12:27:01.482Z,5.63
2023-01-19T12:28:04.178Z,5.63
2023-01-19T12:29:06.773Z,5.6
2023-01-19T12:30:09.438Z,5.61
2023-01-19T12:31:12.457Z,5.64
2023-01-19T12:32:15.471Z,5.66
2023-01-19T12:33:18.121Z,5.68
2023-01-19T12:34:20.825Z,5.69
2023-01-19T12:35:23.475Z,5.72
2023-01-19T12:36:26.609Z,5.72
2023-01-19T12:37:29.286Z,5.74
2023-01-19T12:38:32.511Z,5.76
2023-01-19T12:39:35.242Z,5.78
2023-01-19T12:40:38.131Z,5.78
2023-01-19T12:41:40.892Z,5.8
2023-01-19T12:42:43.575Z,5.79
2023-01-19T12:43:46.217Z,5.79
2023-01-19T12:44:48.866Z,5.79
2023-01-19T12:45:51.686Z,5.8
2023-01-19T12:46:54.371Z,5.82
2023-01-19T12:47:57.102Z,5.83
2023-01-19T12:49:00.174Z,5.81
2023-01-19T12:50:02.799Z,5.82
2023-01-19T12:51:05.471Z,5.84
2023-01-19T12:52:08.136Z,5.87
2023-01-19T12:53:10.849Z,5.85
2023-01-19T12:54:13.501Z,5.85
2023-01-19T12:55:16.146Z,5.87
2023-01-19T12:56:18.851Z,5.9
2023-01-19T12:57:21.542Z,5.91
2023-01-19T12:58:24.219Z,5.92
2023-01-19T12:59:26.875Z,5.93
2023-01-19T13:00:29.573Z,5.89
2023-01-19T13:01:32.607Z,5.86
2023-01-19T13:02:35.500Z,5.87
2023-01-19T13:03:38.241Z,5.84
2023-01-19T13:04:40.884Z,5.84
2023-01-19T13:05:44.147Z,5.82
2023-01-19T13:06:56.823Z,5.84
2023-01-19T13:07:59.089Z,5.84
2023-01-19T13:09:01.780Z,5.85
2023-01-19T13:10:04.408Z,5.85
2023-01-19T13:11:17.141Z,5.86
2023-01-19T13:12:19.363Z,5.86
2023-01-19T13:13:22.189Z,5.87
2023-01-19T13:14:24.831Z,5.89
2023-01-19T13:15:27.741Z,5.91
2023-01-19T13:16:30.440Z,5.9
2023-01-19T13:17:33.195Z,5.91
2023-01-19T13:18:36.412Z,5.91
2023-01-19T13:19:39.063Z,5.89
2023-01-19T13:20:41.738Z,5.89
2023-01-19T13:21:45.302Z,5.87
2023-01-19T13:22:47.899Z,5.84
2023-01-19T13:23:50.560Z,5.82
2023-01-19T13:24:53.259Z,5.78
2023-01-19T13:25:55.963Z,5.75
2023-01-19T13:26:58.650Z,5.73
2023-01-19T13:28:01.374Z,5.71
2023-01-19T13:29:07.701Z,5.68
2023-01-19T13:30:10.166Z,5.64
2023-01-19T13:31:14.925Z,5.58
2023-01-19T13:32:17.672Z,5.54
2023-01-19T13:33:20.344Z,5.51
2023-01-19T13:34:22.999Z,5.5
2023-01-19T13:35:25.657Z,5.5
2023-01-19T13:36:28.307Z,5.48
2023-01-19T13:37:31.194Z,5.48
2023-01-19T13:38:33.867Z,5.46
2023-01-19T13:39:36.481Z,5.45
2023-01-19T13:40:39.141Z,5.44
2023-01-19T13:41:41.884Z,5.42
2023-01-19T13:42:44.588Z,5.43
2023-01-19T13:43:47.227Z,5.4
2023-01-19T13:44:50.053Z,5.39
2023-01-19T13:45:53.866Z,5.39
2023-01-19T13:46:56.369Z,5.36
2023-01-19T13:47:59.103Z,5.34
2023-01-19T13:49:01.760Z,5.33
2023-01-19T13:50:05.095Z,5.31
2023-01-19T13:51:08.123Z,5.3
2023-01-19T13:52:10.773Z,5.3
2023-01-19T13:53:13.438Z,5.3
2023-01-19T13:54:16.111Z,5.28
2023-01-19T13:55:18.869Z,5.27
2023-01-19T13:56:21.539Z,5.25
2023-01-19T13:57:24.285Z,5.24
2023-01-19T13:58:27.008Z,5.23
2023-01-19T13:59:29.762Z,5.22
2023-01-19T14:00:32.536Z,5.19